createdAt,value
2018-12-21T00:03:25.390Z,48.80
2018-12-21T00:08:27.145Z,48.90
2018-12-21T00:13:29.010Z,42.40
2018-12-21T00:18:31.309Z,44.83
2018-12-21T00:23:34.212Z,44.50
2018-12-21T00:28:36.091Z,43.00
2018-12-21T00:33:43.904Z,43.47
2018-12-21T00:38:51.528Z,43.77
2018-12-21T00:49:28.265Z,41.97
2018-12-21T00:54:30.544Z,47.53
2018-12-21T00:59:32.216Z,37.37
2018-12-21T01:04:34.099Z,43.00
2018-12-21T01:09:36.769Z,38.20
2018-12-21T01:14:38.882Z,31.47
2018-12-21T01:19:40.553Z,20.90
2018-12-21T01:24:42.429Z,32.13
2018-12-21T01:29:44.513Z,26.47
2018-12-21T01:34:46.804Z,35.27
2018-12-21T01:39:49.486Z,24.40
2018-12-21T01:44:51.584Z,29.83
2018-12-21T01:49:53.874Z,22.77
2018-12-21T01:54:56.161Z,37.80
2018-12-21T01:59:58.445Z,31.50
2018-12-21T02:05:00.325Z,27.53
2018-12-21T02:10:02.201Z,46.97
2018-12-21T02:15:04.095Z,40.37
2018-12-21T02:20:06.163Z,65.47
2018-12-21T02:25:08.245Z,39.73
2018-12-21T02:30:09.921Z,56.40
2018-12-21T02:35:11.595Z,45.17
2018-12-21T02:40:13.680Z,43.67
2018-12-21T02:45:15.760Z,44.40
2018-12-21T02:50:17.842Z,54.33
2018-12-21T02:55:20.131Z,67.10
2018-12-21T03:00:22.010Z,58.43
2018-12-21T03:05:23.682Z,31.27
2018-12-21T03:10:25.766Z,50.67
2018-12-21T03:15:28.054Z,61.10
2018-12-21T03:20:29.935Z,42.93
2018-12-21T03:25:31.918Z,48.07
2018-12-21T03:30:34.099Z,65.57
2018-12-21T03:35:36.388Z,47.70
2018-12-21T03:40:38.677Z,67.80
2018-12-21T03:45:40.348Z,53.40
2018-12-21T03:50:42.022Z,54.53
2018-12-21T03:55:43.903Z,61.47
2018-12-21T04:00:45.541Z,48.60
2018-12-21T04:05:47.450Z,50.10
2018-12-21T04:10:49.129Z,57.33
2018-12-21T04:15:50.797Z,37.23
2018-12-21T04:20:53.273Z,40.60
2018-12-21T04:25:55.537Z,47.80
2018-12-21T04:31:02.014Z,50.47
2018-12-21T04:36:03.665Z,45.80
2018-12-21T04:41:05.943Z,58.00
2018-12-21T04:46:07.672Z,42.73
2018-12-21T04:51:10.145Z,47.37
2018-12-21T04:56:12.231Z,43.47
2018-12-21T05:01:14.338Z,37.17
2018-12-21T05:06:16.213Z,57.50
2018-12-21T05:11:18.502Z,48.73
2018-12-21T05:16:20.384Z,42.83
2018-12-21T05:21:22.268Z,44.63
2018-12-21T05:26:24.747Z,44.47
2018-12-21T05:31:28.406Z,35.63
2018-12-21T05:36:30.603Z,39.33
2018-12-21T05:41:32.271Z,41.30
2018-12-21T05:46:33.930Z,35.87
2018-12-21T05:51:36.237Z,37.90
2018-12-21T05:56:38.319Z,37.00
2018-12-21T06:01:40.510Z,39.23
2018-12-21T06:06:42.825Z,44.13
2018-12-21T06:11:44.910Z,34.53
2018-12-21T06:16:46.587Z,34.43
2018-12-21T06:21:48.466Z,37.70
2018-12-21T06:26:50.755Z,38.80
2018-12-21T06:31:53.041Z,39.37
2018-12-21T06:36:54.921Z,36.93
2018-12-21T06:41:57.002Z,39.87
2018-12-21T06:46:58.868Z,37.57
2018-12-21T06:52:01.171Z,43.73
2018-12-21T06:57:03.236Z,38.17
2018-12-21T07:02:19.963Z,32.87
2018-12-21T07:07:21.743Z,32.73
2018-12-21T07:12:23.734Z,33.57
2018-12-21T07:17:25.409Z,33.43
2018-12-21T07:22:27.493Z,32.83
2018-12-21T07:27:29.578Z,48.30
2018-12-21T07:32:31.459Z,37.10
2018-12-21T07:37:33.121Z,35.30
2018-12-21T07:42:35.003Z,32.90
2018-12-21T07:47:37.102Z,41.97
2018-12-21T07:52:38.990Z,38.30
2018-12-21T07:57:40.618Z,35.23
2018-12-21T08:02:42.338Z,38.67
2018-12-21T08:07:45.867Z,37.87
2018-12-21T08:12:47.532Z,30.10
2018-12-21T08:17:53.846Z,26.43
2018-12-21T08:22:55.804Z,29.00
2018-12-21T08:27:58.078Z,30.30
2018-12-21T08:33:03.594Z,34.13
2018-12-21T08:38:05.952Z,39.60
2018-12-21T08:43:08.019Z,39.43
2018-12-21T08:48:09.914Z,31.73
2018-12-21T08:53:11.535Z,35.93
2018-12-21T08:58:13.268Z,28.70
2018-12-21T09:03:19.040Z,36.60
2018-12-21T09:13:54.959Z,26.80
2018-12-21T09:18:56.814Z,35.77
2018-12-21T09:24:01.100Z,39.50
2018-12-21T09:29:02.679Z,40.77
2018-12-21T09:34:04.722Z,50.07
2018-12-21T09:39:06.392Z,39.50
2018-12-21T09:44:08.680Z,42.67
2018-12-21T09:49:22.219Z,45.90
2018-12-21T09:59:54.467Z,39.83
2018-12-21T10:05:03.912Z,43.00
2018-12-21T10:10:06.622Z,53.27
2018-12-21T10:15:11.143Z,41.53
2018-12-21T10:20:13.447Z,36.33
2018-12-21T10:25:16.148Z,38.00
2018-12-21T10:30:18.802Z,37.73
2018-12-21T10:35:20.527Z,47.73
2018-12-21T10:40:22.201Z,36.97
2018-12-21T10:45:24.492Z,15.93
2018-12-21T10:50:26.572Z,53.60
2018-12-21T10:55:31.114Z,44.87
2018-12-21T11:00:33.245Z,48.43
2018-12-21T11:05:34.932Z,45.23
2018-12-21T11:10:36.660Z,36.67
2018-12-21T11:15:38.296Z,36.70
2018-12-21T11:20:39.974Z,32.63
2018-12-21T11:25:41.710Z,41.13
2018-12-21T11:30:44.060Z,40.80
2018-12-21T11:36:01.561Z,34.43
2018-12-21T11:41:03.219Z,38.93
2018-12-21T11:46:05.189Z,29.67
2018-12-21T11:51:06.902Z,24.23
2018-12-21T11:56:09.421Z,28.60
2018-12-21T12:01:13.479Z,25.47
2018-12-21T12:06:16.132Z,30.63
2018-12-21T12:11:18.435Z,29.40
2018-12-21T12:16:20.131Z,26.13
2018-12-21T12:21:21.851Z,22.07
2018-12-21T12:26:23.973Z,18.40
2018-12-21T12:31:43.049Z,21.33
2018-12-21T12:36:45.396Z,13.00
2018-12-21T12:41:47.319Z,13.53
2018-12-21T12:46:49.209Z,17.50
2018-12-21T12:51:52.143Z,13.77
2018-12-21T12:56:53.846Z,11.30
2018-12-21T13:01:55.565Z,8.00
2018-12-21T13:06:57.856Z,15.57
2018-12-21T13:11:59.531Z,11.50
2018-12-21T13:17:01.209Z,10.90
2018-12-21T13:22:02.935Z,9.57
2018-12-21T13:27:04.972Z,9.13
2018-12-21T13:32:06.852Z,13.00
2018-12-21T13:37:09.142Z,9.67
2018-12-21T13:42:10.818Z,11.13
2018-12-21T13:47:12.682Z,11.90
2018-12-21T13:52:14.362Z,19.60
2018-12-21T13:57:16.062Z,7.60
2018-12-21T14:02:17.720Z,14.00
2018-12-21T14:07:19.477Z,16.20
2018-12-21T14:12:21.147Z,10.83
2018-12-21T14:17:22.862Z,10.90
2018-12-21T14:22:24.950Z,15.60
2018-12-21T14:27:26.631Z,13.10
2018-12-21T14:32:28.339Z,8.40
2018-12-21T14:37:30.442Z,16.60
2018-12-21T14:42:32.733Z,8.57
2018-12-21T14:47:34.445Z,8.37
2018-12-21T14:52:36.544Z,7.60
2018-12-21T14:57:38.324Z,9.37
2018-12-21T15:02:39.998Z,13.10
2018-12-21T15:07:42.280Z,6.30
2018-12-21T15:12:44.359Z,7.23
2018-12-21T15:17:45.993Z,9.77
2018-12-21T15:22:47.729Z,8.30
2018-12-21T15:27:49.797Z,5.50
2018-12-21T15:32:57.721Z,9.77
2018-12-21T15:37:59.730Z,7.03
2018-12-21T15:43:12.042Z,9.30
2018-12-21T15:48:20.851Z,6.77
2018-12-21T15:53:23.202Z,7.40
2018-12-21T15:58:24.881Z,9.27
2018-12-21T16:03:26.966Z,13.30
2018-12-21T16:08:28.610Z,9.83
2018-12-21T16:13:30.270Z,9.10
2018-12-21T16:18:32.396Z,7.73
2018-12-21T16:23:34.476Z,12.60
2018-12-21T16:28:36.255Z,10.17
2018-12-21T16:33:38.508Z,8.20
2018-12-21T16:38:40.218Z,7.13
2018-12-21T16:43:41.891Z,8.90
2018-12-21T16:48:43.998Z,13.67
2018-12-21T16:53:46.065Z,6.27
2018-12-21T16:58:47.922Z,10.40
2018-12-21T17:03:51.069Z,4.50
2018-12-21T17:08:53.156Z,7.50
2018-12-21T17:13:55.034Z,6.30
2018-12-21T17:18:57.358Z,3.97
2018-12-21T17:23:59.197Z,4.97
2018-12-21T17:29:01.301Z,6.60
2018-12-21T17:34:03.670Z,6.17
2018-12-21T17:39:06.770Z,6.23
2018-12-21T17:44:08.670Z,7.73
2018-12-21T17:49:11.581Z,5.70
2018-12-21T17:54:13.299Z,7.20
2018-12-21T17:59:15.425Z,9.67
2018-12-21T18:04:17.147Z,10.73
2018-12-21T18:09:18.875Z,5.73
2018-12-21T18:14:20.752Z,7.30
2018-12-21T18:19:23.043Z,6.50
2018-12-21T18:24:24.749Z,3.50
2018-12-21T18:29:26.418Z,6.17
2018-12-21T18:34:29.770Z,6.90
2018-12-21T18:39:31.614Z,6.30
2018-12-21T18:44:33.704Z,4.80
2018-12-21T18:49:35.431Z,5.87
2018-12-21T18:54:37.548Z,2.73
2018-12-21T18:59:39.487Z,6.10
2018-12-21T19:04:41.412Z,4.23
2018-12-21T19:09:43.034Z,9.90
2018-12-21T19:14:45.044Z,5.07
2018-12-21T19:19:46.735Z,2.33
2018-12-21T19:24:48.471Z,4.97
2018-12-21T19:29:50.771Z,6.07
2018-12-21T19:34:54.094Z,5.97
2018-12-21T19:39:56.141Z,4.40
2018-12-21T19:45:02.032Z,9.40
2018-12-21T19:50:06.639Z,5.40
2018-12-21T19:55:14.342Z,5.47
2018-12-21T20:00:16.126Z,10.10
2018-12-21T20:05:17.820Z,7.37
2018-12-21T20:10:19.916Z,4.97
2018-12-21T20:15:21.584Z,12.63
2018-12-21T20:20:23.274Z,11.07
2018-12-21T20:25:25.342Z,6.87
2018-12-21T20:30:27.443Z,14.80
2018-12-21T20:35:29.302Z,16.90
2018-12-21T20:40:31.198Z,16.93
2018-12-21T20:45:33.272Z,15.43
2018-12-21T20:50:34.944Z,17.87
2018-12-21T20:55:36.840Z,16.70
2018-12-21T21:00:38.934Z,15.63
2018-12-21T21:05:40.639Z,11.80
2018-12-21T21:10:42.956Z,19.10
2018-12-21T21:15:45.259Z,32.13
2018-12-21T21:20:47.350Z,24.00
2018-12-21T21:25:50.050Z,17.90
2018-12-21T21:30:52.152Z,25.70
2018-12-21T21:35:54.027Z,21.77
2018-12-21T21:40:55.810Z,23.60
2018-12-21T21:45:57.782Z,42.30
2018-12-21T21:50:59.671Z,38.83
2018-12-21T21:56:02.787Z,35.00
2018-12-21T22:01:04.650Z,45.70
2018-12-21T22:06:09.827Z,48.07
2018-12-21T22:11:11.906Z,47.00
2018-12-21T22:16:14.205Z,42.37
2018-12-21T22:21:16.503Z,31.73
2018-12-21T22:26:18.387Z,29.40
2018-12-21T22:31:20.064Z,28.43
2018-12-21T22:36:22.165Z,25.70
2018-12-21T22:41:23.852Z,32.63
2018-12-21T22:46:25.549Z,24.47
2018-12-21T22:51:27.194Z,22.53
2018-12-21T22:56:29.446Z,31.37
2018-12-21T23:01:31.758Z,27.23
2018-12-21T23:06:33.886Z,18.90
2018-12-21T23:11:35.995Z,19.10
2018-12-21T23:16:37.692Z,24.70
2018-12-21T23:21:39.432Z,17.17
2018-12-21T23:26:41.539Z,13.00
2018-12-21T23:31:43.438Z,18.43
2018-12-21T23:36:46.139Z,9.20
2018-12-21T23:41:54.811Z,11.53
2018-12-21T23:46:56.908Z,10.73
2018-12-21T23:51:58.595Z,8.70
2018-12-21T23:57:00.293Z,13.37
